Time;durP1;ratioP1;P1;durP2;ratioP2;P2;SDS_P1;SDS_P2;PMS_P1;PMS_P2;Temp;Humidity;BMP_temperature;BMP_pressure;BME280_temperature;BME280_humidity;BME280_pressure;Samples;Min_cycle;Max_cycle;Signal;HPM_P1;HPM_P2
2022/03/28 00:01:19;;;;;;;6.75;6.45;;;;;;;1.94;40.40;102093.13;5032209;28;20017;-63
2022/03/28 00:03:45;;;;;;;6.22;5.93;;;;;;;1.98;40.45;102101.63;5054362;28;20029;-63
2022/03/28 00:06:11;;;;;;;6.20;5.90;;;;;;;1.93;40.95;102104.50;5024387;28;20088;-63
2022/03/28 00:08:37;;;;;;;6.15;5.85;;;;;;;1.89;40.73;102092.50;5014222;28;20030;-63
2022/03/28 00:11:06;;;;;;;6.25;5.95;;;;;;;1.77;41.62;102098.38;5021692;28;20021;-63
2022/03/28 00:13:33;;;;;;;6.13;5.82;;;;;;;1.75;41.89;102097.59;5018463;28;20101;-63
2022/03/28 00:15:59;;;;;;;6.30;6.00;;;;;;;1.64;41.46;102081.63;5026597;28;20076;-62
2022/03/28 00:18:24;;;;;;;6.65;6.35;;;;;;;1.63;42.10;102080.78;5034651;28;20022;-62
2022/03/28 00:20:51;;;;;;;6.80;6.50;;;;;;;1.73;42.09;102083.75;5033300;28;20029;-62
2022/03/28 00:23:16;;;;;;;6.32;6.03;;;;;;;1.66;42.28;102082.38;5033940;28;20060;-62
2022/03/28 00:25:44;;;;;;;6.00;5.70;;;;;;;1.63;42.12;102078.16;5033700;28;20057;-62
2022/03/28 00:28:10;;;;;;;6.32;6.03;;;;;;;1.64;42.74;102085.09;5033375;28;20393;-63
2022/03/28 00:30:35;;;;;;;6.13;5.82;;;;;;;1.64;42.07;102073.78;5028763;28;20033;-62
2022/03/28 00:33:01;;;;;;;6.22;5.93;;;;;;;1.51;42.76;102073.56;5029414;28;20066;-62
2022/03/28 00:35:27;;;;;;;6.85;6.50;;;;;;;1.49;42.63;102071.94;5045675;28;20123;-62
2022/03/28 00:37:53;;;;;;;6.38;6.07;;;;;;;1.48;42.09;102081.56;5033309;28;20049;-62
2022/03/28 00:40:20;;;;;;;6.20;5.90;;;;;;;1.42;43.18;102089.72;5049101;28;20411;-62
2022/03/28 00:42:48;;;;;;;6.43;6.13;;;;;;;1.29;42.65;102065.09;5052034;28;20029;-62
2022/03/28 00:45:14;;;;;;;6.20;5.90;;;;;;;1.35;42.65;102083.09;5036296;28;20028;-62
2022/03/28 00:47:40;;;;;;;6.45;6.15;;;;;;;1.25;43.54;102074.88;5053090;28;20061;-63
2022/03/28 00:50:06;;;;;;;6.00;5.70;;;;;;;1.27;43.38;102085.25;5033900;28;20113;-63
2022/03/28 00:52:33;;;;;;;6.05;5.75;;;;;;;1.30;43.24;102078.09;5033829;28;20025;-62
2022/03/28 00:54:59;;;;;;;6.93;6.55;;;;;;;1.20;43.06;102066.41;5031748;28;20112;-63
2022/03/28 00:57:24;;;;;;;6.10;5.80;;;;;;;1.18;43.72;102080.50;5018986;28;20125;-62
2022/03/28 00:59:50;;;;;;;6.60;6.30;;;;;;;1.10;43.76;102076.50;5033060;28;20045;-63
2022/03/28 01:02:16;;;;;;;6.22;5.93;;;;;;;1.08;44.24;102086.16;5043197;28;20177;-62
2022/03/28 01:04:41;;;;;;;6.10;5.80;;;;;;;0.93;45.47;102073.00;5013262;28;20393;-63
2022/03/28 01:07:08;;;;;;;6.25;5.95;;;;;;;0.81;45.83;102066.63;5012761;28;20049;-63
2022/03/28 01:09:34;;;;;;;6.20;5.90;;;;;;;0.81;46.06;102067.47;5022755;28;20540;-63
2022/03/28 01:12:01;;;;;;;6.22;5.93;;;;;;;0.90;45.59;102071.41;5033893;28;20128;-63
2022/03/28 01:14:27;;;;;;;6.40;6.10;;;;;;;0.79;45.00;102064.06;5032160;28;20061;-64
2022/03/28 01:19:48;;;;;;;6.95;6.57;;;;;;;0.69;45.99;102056.75;5030325;28;20029;-63
2022/03/28 01:22:13;;;;;;;5.93;5.63;;;;;;;0.64;46.21;102058.72;5032693;28;20030;-63
2022/03/28 01:24:40;;;;;;;6.60;6.30;;;;;;;0.61;45.89;102058.88;5032487;28;20026;-62
2022/03/28 01:27:06;;;;;;;6.40;6.10;;;;;;;0.63;46.16;102063.09;5032879;28;20036;-63
2022/03/28 01:29:32;;;;;;;6.40;6.10;;;;;;;0.61;46.39;102070.19;5032084;28;20041;-64
2022/03/28 01:31:57;;;;;;;6.43;6.13;;;;;;;0.57;46.30;102052.09;5015858;28;20481;-63
2022/03/28 01:34:23;;;;;;;6.40;6.10;;;;;;;0.57;46.19;102062.56;5051058;28;20112;-63
2022/03/28 01:36:48;;;;;;;6.47;6.18;;;;;;;0.55;45.99;102057.41;5034273;28;20179;-63
2022/03/28 01:39:15;;;;;;;6.65;6.35;;;;;;;0.55;46.23;102062.63;5049114;28;20025;-63
2022/03/28 01:41:41;;;;;;;6.32;6.03;;;;;;;0.53;46.64;102065.31;5031929;28;20029;-63
2022/03/28 01:44:07;;;;;;;6.43;6.13;;;;;;;0.47;46.10;102060.38;5044727;28;20534;-63
2022/03/28 01:46:39;;;;;;;6.43;6.13;;;;;;;0.47;46.06;102057.78;5032532;28;20025;-62
2022/03/28 01:49:05;;;;;;;6.30;6.00;;;;;;;0.39;46.25;102038.16;5021378;28;20060;-63
2022/03/28 01:51:31;;;;;;;6.30;6.00;;;;;;;0.52;45.64;102057.56;5012553;28;20026;-63
2022/03/28 01:53:59;;;;;;;6.18;5.88;;;;;;;0.49;45.80;102053.31;5020414;28;20081;-63
2022/03/28 01:56:25;;;;;;;6.03;5.72;;;;;;;0.49;45.57;102047.25;5031935;28;20604;-63
2022/03/28 01:58:50;;;;;;;6.60;6.30;;;;;;;0.49;45.61;102049.84;5032101;28;20033;-62
2022/03/28 02:01:16;;;;;;;6.20;5.90;;;;;;;0.46;45.43;102047.41;5041086;28;20119;-63
2022/03/28 02:03:41;;;;;;;6.22;5.93;;;;;;;0.52;45.11;102047.13;5051989;28;20067;-63
2022/03/28 02:06:07;;;;;;;6.28;5.97;;;;;;;0.52;45.71;102047.13;5051903;28;20029;-63
2022/03/28 02:08:34;;;;;;;5.78;5.55;;;;;;;0.53;46.67;102046.19;5032269;28;20440;-64
2022/03/28 02:11:00;;;;;;;6.45;6.15;;;;;;;0.43;46.74;102045.75;5050614;28;20480;-63
2022/03/28 02:13:25;;;;;;;6.95;6.55;;;;;;;0.39;46.61;102051.22;5051760;28;20028;-63
2022/03/28 02:15:51;;;;;;;5.80;5.60;;;;;;;0.24;46.62;102032.75;5051835;28;20123;-63
2022/03/28 02:18:16;;;;;;;6.25;5.95;;;;;;;0.47;46.29;102047.31;5044977;28;20026;-63
2022/03/28 02:20:41;;;;;;;6.22;5.93;;;;;;;0.53;46.73;102052.25;5031333;28;20025;-62
2022/03/28 02:23:07;;;;;;;6.20;5.90;;;;;;;0.51;46.36;102053.22;5030499;28;20096;-63
2022/03/28 02:25:37;;;;;;;6.03;5.72;;;;;;;0.40;46.75;102050.28;5019227;28;20034;-63
2022/03/28 02:28:03;;;;;;;6.00;5.70;;;;;;;0.38;47.13;102047.75;5025045;28;20061;-62
2022/03/28 02:30:29;;;;;;;6.22;5.93;;;;;;;0.42;47.03;102044.06;5031839;28;20075;-62
2022/03/28 02:32:54;;;;;;;6.18;5.88;;;;;;;0.39;47.00;102044.22;5038575;28;20017;-63
2022/03/28 02:35:20;;;;;;;6.93;6.53;;;;;;;0.37;47.60;102042.59;5036167;28;20037;-63
2022/03/28 02:37:47;;;;;;;6.60;6.28;;;;;;;0.20;47.68;102014.69;5031166;28;20033;-63
2022/03/28 02:40:12;;;;;;;6.55;6.25;;;;;;;0.37;47.42;102033.03;5031394;28;20032;-64
2022/03/28 02:42:38;;;;;;;5.90;5.60;;;;;;;0.29;47.68;102024.69;5031807;28;20021;-64
2022/03/28 02:45:04;;;;;;;6.38;6.07;;;;;;;0.37;47.61;102027.81;5031796;28;20021;-64
2022/03/28 02:47:30;;;;;;;5.70;5.50;;;;;;;0.22;47.55;102021.53;5011812;28;20434;-64
2022/03/28 02:49:55;;;;;;;6.05;5.75;;;;;;;0.28;47.65;102021.22;5029062;28;20029;-63
2022/03/28 02:52:22;;;;;;;5.88;5.60;;;;;;;0.31;47.45;102019.41;5030038;28;20033;-62
2022/03/28 02:54:48;;;;;;;6.05;5.75;;;;;;;0.27;47.89;102018.69;5030705;28;20030;-63
2022/03/28 02:57:14;;;;;;;6.43;6.13;;;;;;;0.19;48.10;102011.22;5029962;28;20050;-63
2022/03/28 02:59:40;;;;;;;6.25;5.95;;;;;;;0.17;48.16;102004.41;5031779;28;20032;-63
2022/03/28 03:02:06;;;;;;;6.47;6.18;;;;;;;0.18;48.61;102008.69;5047525;28;20404;-61
2022/03/28 03:04:33;;;;;;;5.82;5.60;;;;;;;0.13;49.25;102005.44;5043656;28;20053;-63
2022/03/28 03:06:59;;;;;;;6.20;5.90;;;;;;;0.13;49.53;102002.84;5011621;28;20022;-62
2022/03/28 03:09:24;;;;;;;6.00;5.70;;;;;;;0.01;50.72;102001.66;5030838;28;20480;-62
2022/03/28 03:11:52;;;;;;;6.25;5.95;;;;;;;0.03;50.50;102001.59;5051004;28;20044;-62
2022/03/28 03:14:17;;;;;;;6.65;6.35;;;;;;;-0.16;50.85;101998.94;5049686;28;20017;-62
2022/03/28 03:16:43;;;;;;;6.60;6.30;;;;;;;-0.20;51.32;102005.25;5050880;28;20104;-63
2022/03/28 03:19:09;;;;;;;6.10;5.80;;;;;;;-0.20;51.26;102000.03;5038449;28;20064;-63
2022/03/28 03:21:35;;;;;;;6.63;6.32;;;;;;;-0.22;51.49;101996.63;5043256;28;20053;-63
2022/03/28 03:24:01;;;;;;;6.90;6.50;;;;;;;-0.32;51.88;101984.00;5021561;28;20485;-63
2022/03/28 03:26:27;;;;;;;6.25;5.95;;;;;;;-0.23;51.27;101994.94;5032093;28;20157;-62
2022/03/28 03:28:55;;;;;;;6.85;6.45;;;;;;;-0.28;50.76;101996.00;5043366;28;20115;-63
2022/03/28 03:31:22;;;;;;;6.60;6.30;;;;;;;-0.39;50.58;102000.84;5041051;28;20039;-63
2022/03/28 03:33:47;;;;;;;7.05;6.65;;;;;;;-0.35;50.79;102004.16;5038422;28;20026;-63
2022/03/28 03:36:13;;;;;;;6.47;6.18;;;;;;;-0.42;51.00;102000.13;5052505;28;20037;-64
2022/03/28 03:38:38;;;;;;;6.88;6.53;;;;;;;-0.47;51.12;101992.50;5040569;28;20544;-63
2022/03/28 03:41:04;;;;;;;6.80;6.45;;;;;;;-0.45;51.40;102001.09;5029495;28;20447;-64
2022/03/28 03:43:30;;;;;;;6.60;6.30;;;;;;;-0.51;51.67;102006.59;5046773;28;20020;-63
2022/03/28 03:45:56;;;;;;;7.53;7.13;;;;;;;-0.56;51.46;102000.75;5036797;28;20033;-62
2022/03/28 03:48:22;;;;;;;6.40;6.10;;;;;;;-0.60;51.71;102004.38;5035832;28;20025;-63
2022/03/28 03:50:47;;;;;;;7.05;6.65;;;;;;;-0.54;52.37;101996.31;5033543;28;20036;-62
2022/03/28 03:53:13;;;;;;;7.10;6.70;;;;;;;-0.43;52.34;102003.66;5019078;28;20036;-62
2022/03/28 03:55:39;;;;;;;6.97;6.57;;;;;;;-0.48;52.36;102001.25;5015580;28;20539;-61
2022/03/28 03:58:05;;;;;;;6.82;6.50;;;;;;;-0.52;52.33;101993.63;5033914;28;20045;-61
2022/03/28 04:00:30;;;;;;;6.40;6.10;;;;;;;-0.44;52.42;101992.41;5050647;28;20078;-62
2022/03/28 04:02:56;;;;;;;7.65;7.22;;;;;;;-0.37;52.50;101979.91;5027258;28;20366;-62
2022/03/28 04:05:21;;;;;;;7.45;7.05;;;;;;;-0.22;53.30;101976.63;5044487;28;20025;-61
2022/03/28 04:07:47;;;;;;;7.45;7.05;;;;;;;-0.26;53.49;101967.25;5042237;28;20035;-62
2022/03/28 04:10:12;;;;;;;6.88;6.47;;;;;;;-0.06;53.01;101964.56;5039112;28;20057;-61
2022/03/28 04:12:39;;;;;;;6.88;6.47;;;;;;;0.03;52.95;101972.88;5033763;28;20539;-61
2022/03/28 04:15:05;;;;;;;7.45;7.05;;;;;;;0.28;51.60;101966.41;5034373;28;20043;-62
2022/03/28 04:17:39;;;;;;;7.22;6.82;;;;;;;0.43;50.60;101970.06;5036798;28;20476;-62
2022/03/28 04:20:05;;;;;;;;;;;;;;;0.58;50.34;101970.22;5043048;28;20029;-62
2022/03/28 04:22:30;;;;;;;6.93;6.53;;;;;;;0.91;49.22;101973.81;5023934;28;20008;-62
2022/03/28 04:24:56;;;;;;;6.68;6.35;;;;;;;1.00;48.94;101981.16;5047608;28;20039;-61
2022/03/28 04:27:21;;;;;;;7.15;6.75;;;;;;;1.37;48.01;101985.34;5035161;28;20119;-62
2022/03/28 04:29:46;;;;;;;6.65;6.25;;;;;;;1.50;47.69;101990.81;5033052;28;20057;-63
2022/03/28 04:32:12;;;;;;;6.40;6.10;;;;;;;1.85;47.33;101991.56;5046256;28;20029;-62
2022/03/28 04:34:38;;;;;;;7.00;6.60;;;;;;;2.04;46.77;101987.91;5033821;28;20048;-63
2022/03/28 04:37:03;;;;;;;7.65;7.25;;;;;;;2.72;45.14;101998.94;5032757;28;20103;-66
2022/03/28 04:39:29;;;;;;;7.35;6.95;;;;;;;3.73;43.19;102001.63;5036315;28;20105;-62
2022/03/28 04:41:54;;;;;;;6.75;6.43;;;;;;;5.64;40.09;101999.59;5047014;28;20028;-62
2022/03/28 04:44:20;;;;;;;6.63;6.32;;;;;;;7.47;35.63;102001.97;5029177;28;20076;-62
2022/03/28 04:46:46;;;;;;;6.07;5.78;;;;;;;8.98;32.34;102004.84;5051590;28;20127;-63
2022/03/28 04:49:14;;;;;;;6.53;6.22;;;;;;;9.45;32.72;101993.84;5038940;28;20073;-62
2022/03/28 04:51:40;;;;;;;6.20;5.90;;;;;;;9.07;32.77;102001.41;5038057;28;20395;-62
2022/03/28 04:54:06;;;;;;;6.10;5.80;;;;;;;8.77;32.27;102006.63;5043287;28;20048;-62
2022/03/28 04:56:34;;;;;;;6.88;6.57;;;;;;;9.98;31.70;102000.63;5043564;28;20050;-62
2022/03/28 04:58:59;;;;;;;7.22;6.93;;;;;;;11.39;29.22;102000.31;5029487;28;20029;-63
2022/03/28 05:01:25;;;;;;;6.45;6.15;;;;;;;11.49;28.52;102007.25;5036611;28;20037;-63
2022/03/28 05:03:51;;;;;;;7.15;6.85;;;;;;;11.88;27.46;102010.63;5048831;28;20025;-63
2022/03/28 05:06:16;;;;;;;6.72;6.43;;;;;;;12.61;27.08;102007.94;5046517;28;20021;-63
2022/03/28 05:08:42;;;;;;;7.32;7.03;;;;;;;13.91;25.15;102004.56;5045424;28;20426;-63
2022/03/28 05:11:07;;;;;;;7.55;7.25;;;;;;;13.48;25.28;102020.50;5037376;28;20029;-63
2022/03/28 05:13:33;;;;;;;6.90;6.60;;;;;;;13.98;25.41;102016.28;5037968;28;20419;-63
2022/03/28 05:15:59;;;;;;;7.85;7.45;;;;;;;14.63;24.09;102006.63;5042999;28;20045;-63
2022/03/28 05:18:24;;;;;;;7.45;7.15;;;;;;;14.93;23.67;102001.63;5037592;28;20021;-64
2022/03/28 05:20:50;;;;;;;6.97;6.68;;;;;;;15.78;23.20;102006.53;5052087;28;20377;-63
2022/03/28 05:23:16;;;;;;;7.32;7.03;;;;;;;15.74;22.35;102004.19;5041900;28;20033;-64
2022/03/28 05:25:43;;;;;;;7.32;7.03;;;;;;;16.21;21.77;102005.16;5047559;28;20434;-63
2022/03/28 05:28:09;;;;;;;7.28;6.97;;;;;;;16.15;21.60;101998.66;5035571;28;20537;-64
2022/03/28 05:30:35;;;;;;;6.90;6.60;;;;;;;17.07;20.88;101991.50;5041429;28;20033;-65
2022/03/28 05:33:01;;;;;;;6.82;6.53;;;;;;;16.32;21.45;101995.91;5036453;28;20095;-65
2022/03/28 05:35:27;;;;;;;6.90;6.60;;;;;;;19.17;19.08;101995.28;5025952;28;20030;-64
2022/03/28 05:37:53;;;;;;;7.07;6.78;;;;;;;18.85;18.95;101992.13;5040633;28;20571;-65
2022/03/28 05:40:18;;;;;;;7.05;6.75;;;;;;;19.25;18.84;101990.59;5043636;28;20191;-66
2022/03/28 05:42:44;;;;;;;7.97;7.68;;;;;;;19.71;18.46;101983.88;5026899;28;20039;-65
2022/03/28 05:45:11;;;;;;;7.13;6.82;;;;;;;19.73;18.15;101989.88;5034317;28;20068;-65
2022/03/28 05:47:36;;;;;;;7.20;6.90;;;;;;;18.94;18.52;101977.50;5033078;28;20020;-64
2022/03/28 05:50:02;;;;;;;6.90;6.60;;;;;;;19.43;17.77;101981.19;5026300;28;20090;-64
2022/03/28 05:52:28;;;;;;;7.20;6.90;;;;;;;19.73;17.73;101977.22;5033694;28;20028;-65
2022/03/28 05:54:53;;;;;;;7.00;6.70;;;;;;;19.50;17.65;101964.03;5036833;28;20029;-63
2022/03/28 05:57:19;;;;;;;7.13;6.82;;;;;;;20.99;16.94;101969.44;5047116;28;20128;-65
2022/03/28 05:59:44;;;;;;;7.07;6.78;;;;;;;18.80;18.00;101967.66;5038933;28;20538;-64
2022/03/28 06:02:10;;;;;;;7.00;6.70;;;;;;;21.06;16.90;101969.44;5037204;28;20033;-65
2022/03/28 06:04:35;;;;;;;7.20;6.90;;;;;;;21.73;15.69;101966.41;5036098;28;20025;-64
2022/03/28 06:07:01;;;;;;;6.97;6.68;;;;;;;21.14;15.93;101961.13;5040366;28;20377;-63
2022/03/28 06:09:26;;;;;;;7.30;7.00;;;;;;;21.04;16.33;101956.16;5041596;28;20167;-64
2022/03/28 06:11:52;;;;;;;7.20;6.90;;;;;;;19.90;16.68;101966.94;5051729;28;20392;-64
2022/03/28 06:14:17;;;;;;;6.93;6.63;;;;;;;19.56;17.02;101957.88;5043133;28;20409;-64
2022/03/28 06:16:43;;;;;;;7.05;6.75;;;;;;;21.33;15.76;101946.81;5032289;28;20021;-65
2022/03/28 06:19:08;;;;;;;7.00;6.70;;;;;;;19.92;16.30;101947.91;5035172;28;20018;-64
2022/03/28 06:21:33;;;;;;;7.10;6.80;;;;;;;19.68;16.62;101949.25;5036713;28;20533;-64
2022/03/28 06:23:59;;;;;;;7.43;7.13;;;;;;;19.99;16.38;101949.59;5026473;28;20580;-63
2022/03/28 06:26:26;;;;;;;7.25;6.95;;;;;;;20.12;16.46;101944.25;5041604;28;20033;-63
2022/03/28 06:28:51;;;;;;;7.32;7.03;;;;;;;19.99;16.45;101938.00;5038411;28;20029;-64
2022/03/28 06:31:17;;;;;;;7.20;6.90;;;;;;;20.63;15.64;101926.72;5038353;28;20074;-65
2022/03/28 06:33:42;;;;;;;7.38;7.07;;;;;;;20.49;15.67;101915.13;5032828;28;20480;-64
2022/03/28 06:36:08;;;;;;;6.90;6.60;;;;;;;22.07;15.18;101905.78;5039951;28;20116;-64
2022/03/28 06:38:34;;;;;;;7.10;6.80;;;;;;;21.50;15.30;101904.78;5043080;28;20598;-63
2022/03/28 06:41:00;;;;;;;6.93;6.63;;;;;;;22.29;15.64;101908.97;5043523;28;20120;-64
2022/03/28 06:43:25;;;;;;;6.90;6.60;;;;;;;20.92;16.49;101911.97;5045005;28;20512;-63
2022/03/28 06:45:51;;;;;;;7.00;6.70;;;;;;;23.32;14.50;101919.31;5030838;28;20378;-64
2022/03/28 06:48:20;;;;;;;7.05;6.75;;;;;;;24.05;14.61;101914.88;5031379;28;20029;-64
2022/03/28 06:50:46;;;;;;;7.00;6.70;;;;;;;23.23;14.14;101917.16;5031442;28;20472;-64
2022/03/28 06:53:11;;;;;;;7.38;7.07;;;;;;;23.56;14.33;101912.16;5022472;28;20037;-65
2022/03/28 06:55:37;;;;;;;7.10;6.80;;;;;;;24.59;13.50;101913.84;5030408;28;20039;-64
2022/03/28 06:58:02;;;;;;;7.25;6.95;;;;;;;24.28;13.52;101906.81;5032345;28;20045;-66
2022/03/28 07:00:28;;;;;;;7.10;6.80;;;;;;;23.84;13.85;101906.19;5035234;28;20026;-67
2022/03/28 07:02:53;;;;;;;7.22;6.93;;;;;;;25.00;12.97;101901.25;5034462;28;20033;-65
2022/03/28 07:05:19;;;;;;;7.30;7.00;;;;;;;24.24;13.03;101903.75;5030148;28;20401;-64
2022/03/28 07:07:46;;;;;;;7.20;6.90;;;;;;;24.70;12.88;101888.63;5041559;28;20627;-65
2022/03/28 07:10:14;;;;;;;7.32;7.03;;;;;;;25.08;12.78;101899.03;5049074;28;20047;-65
2022/03/28 07:12:40;;;;;;;7.10;6.80;;;;;;;24.18;12.76;101891.13;5050087;28;20101;-64
2022/03/28 07:15:06;;;;;;;7.07;6.78;;;;;;;24.75;11.55;101893.34;5043993;28;20647;-63
2022/03/28 07:17:44;;;;;;;7.20;6.90;;;;;;;21.39;12.55;101885.75;5049553;28;20021;-64
2022/03/28 07:20:10;;;;;;;7.00;6.70;;;;;;;21.82;12.72;101877.88;5040396;28;20025;-64
2022/03/28 07:22:36;;;;;;;7.30;7.00;;;;;;;19.88;13.52;101866.69;5047266;28;20040;-64
2022/03/28 07:25:01;;;;;;;7.30;7.00;;;;;;;22.09;12.48;101869.63;5033094;28;20028;-65
2022/03/28 07:27:27;;;;;;;7.20;6.90;;;;;;;19.71;14.01;101849.25;5043806;28;20052;-65
2022/03/28 07:29:52;;;;;;;7.30;7.00;;;;;;;20.07;13.71;101868.59;5050886;28;20031;-66
2022/03/28 07:32:18;;;;;;;7.50;7.20;;;;;;;22.33;12.88;101864.25;5032773;28;20033;-63
2022/03/28 07:34:43;;;;;;;7.55;7.25;;;;;;;20.87;13.10;101860.53;5031319;28;20447;-65
2022/03/28 07:37:10;;;;;;;7.43;7.13;;;;;;;18.87;14.37;101863.69;5036738;28;20040;-64
2022/03/28 07:39:38;;;;;;;7.40;7.10;;;;;;;19.58;14.25;101848.16;5039216;28;20075;-65
2022/03/28 07:42:07;;;;;;;7.43;7.13;;;;;;;20.27;14.16;101846.22;5035643;28;20033;-64
2022/03/28 07:44:35;;;;;;;7.13;6.82;;;;;;;19.90;13.55;101834.16;5041066;28;20037;-65
2022/03/28 07:47:03;;;;;;;7.50;7.20;;;;;;;19.69;13.79;101833.28;5039686;28;20056;-64
2022/03/28 07:49:30;;;;;;;7.10;6.80;;;;;;;20.56;13.83;101837.72;5037110;28;20037;-64
2022/03/28 07:51:56;;;;;;;7.30;7.00;;;;;;;20.07;13.61;101838.13;5035428;28;20029;-65
2022/03/28 07:54:22;;;;;;;7.60;7.30;;;;;;;18.91;14.73;101832.72;5041173;28;20029;-65
2022/03/28 07:56:48;;;;;;;7.40;7.10;;;;;;;19.91;13.84;101820.50;5034578;28;20083;-68
2022/03/28 07:59:13;;;;;;;6.72;6.43;;;;;;;19.72;14.28;101822.09;5024549;28;20174;-67
2022/03/28 08:01:39;;;;;;;7.38;7.07;;;;;;;18.46;15.36;101818.72;5037497;28;20029;-67
2022/03/28 08:04:05;;;;;;;7.32;7.03;;;;;;;19.48;14.17;101812.69;5033612;28;20430;-68
2022/03/28 08:06:30;;;;;;;7.30;7.00;;;;;;;18.93;14.60;101811.81;5043743;28;20033;-68
2022/03/28 08:08:56;;;;;;;7.00;6.70;;;;;;;19.44;13.88;101811.44;5044896;28;20025;-67
2022/03/28 08:11:22;;;;;;;7.32;7.03;;;;;;;19.76;14.16;101809.91;5037030;28;20481;-68
2022/03/28 08:13:47;;;;;;;7.03;6.72;;;;;;;17.46;15.17;101801.81;5044685;28;20074;-67
2022/03/28 08:16:13;;;;;;;7.40;7.10;;;;;;;19.13;14.10;101803.03;5041343;28;20499;-67
2022/03/28 08:18:39;;;;;;;7.28;6.97;;;;;;;18.53;14.50;101791.91;5041413;28;20104;-67
2022/03/28 08:21:05;;;;;;;7.10;6.80;;;;;;;18.84;14.82;101788.00;5029098;28;20033;-67
2022/03/28 08:23:31;;;;;;;6.90;6.60;;;;;;;19.76;13.86;101780.28;5033906;28;20143;-67
2022/03/28 08:25:56;;;;;;;7.28;6.97;;;;;;;18.12;15.01;101775.66;5046516;28;20496;-67
2022/03/28 08:28:23;;;;;;;7.60;7.30;;;;;;;18.22;15.74;101784.25;5048132;28;20069;-68
2022/03/28 08:30:48;;;;;;;7.10;6.80;;;;;;;16.22;16.78;101750.63;5035740;28;20025;-67
2022/03/28 08:33:14;;;;;;;7.22;6.93;;;;;;;17.42;16.15;101760.31;5044835;28;20032;-67
2022/03/28 08:35:40;;;;;;;7.50;7.20;;;;;;;17.48;16.13;101757.69;5049921;28;20036;-67
2022/03/28 08:38:06;;;;;;;7.40;7.10;;;;;;;17.39;15.72;101756.13;5038760;28;20097;-67
2022/03/28 08:40:32;;;;;;;7.30;7.00;;;;;;;18.67;14.91;101763.28;5043318;28;20105;-67
2022/03/28 08:42:58;;;;;;;7.40;7.10;;;;;;;16.24;17.05;101753.13;5053581;28;20450;-67
2022/03/28 08:45:23;;;;;;;7.40;7.10;;;;;;;15.31;17.44;101743.44;5033964;28;20022;-67
2022/03/28 08:47:50;;;;;;;8.32;7.93;;;;;;;15.22;17.29;101740.97;5033153;28;20037;-67
2022/03/28 08:50:16;;;;;;;7.38;7.07;;;;;;;15.27;17.77;101742.09;5034232;28;20052;-68
2022/03/28 08:52:43;;;;;;;7.35;7.05;;;;;;;15.48;17.45;101725.44;5032559;28;20112;-67
2022/03/28 08:55:13;;;;;;;7.22;6.93;;;;;;;15.46;17.57;101733.63;5032678;28;20374;-67
2022/03/28 08:57:38;;;;;;;7.40;7.10;;;;;;;16.57;16.80;101727.66;5031064;28;20045;-67
2022/03/28 09:00:06;;;;;;;8.02;7.63;;;;;;;16.65;17.40;101724.06;5033294;28;20469;-67
2022/03/28 09:02:45;;;;;;;6.93;6.63;;;;;;;15.57;17.66;101719.03;5047432;28;20554;-66
2022/03/28 09:05:14;;;;;;;6.90;6.60;;;;;;;16.03;17.07;101703.78;5038103;28;20033;-66
2022/03/28 09:07:41;;;;;;;7.55;7.25;;;;;;;16.36;16.72;101716.84;5046013;28;20532;-66
2022/03/28 09:10:17;;;;;;;7.10;6.80;;;;;;;15.98;17.11;101698.16;5040953;28;20022;-66
2022/03/28 09:13:01;;;;;;;7.90;7.50;;;;;;;16.12;17.31;101693.00;5029967;28;20060;-67
2022/03/28 09:15:40;;;;;;;6.90;6.60;;;;;;;16.11;17.49;101694.03;5033666;28;20037;-66
2022/03/28 09:18:06;;;;;;;7.25;6.95;;;;;;;15.64;17.69;101677.22;5040335;28;20036;-68
2022/03/28 09:20:35;;;;;;;6.95;6.65;;;;;;;16.63;17.67;101682.41;5034808;28;20030;-68
2022/03/28 09:23:40;;;;;;;7.40;7.10;;;;;;;15.43;17.82;101660.97;5035827;28;20107;-68
2022/03/28 09:26:16;;;;;;;7.00;6.70;;;;;;;15.17;18.11;101655.97;5041146;28;20029;-66
2022/03/28 09:28:47;;;;;;;7.00;6.70;;;;;;;16.07;17.22;101666.78;5040293;28;20029;-66
2022/03/28 09:31:20;;;;;;;7.18;6.88;;;;;;;15.77;17.52;101651.69;5035211;28;20053;-67
2022/03/28 09:33:52;;;;;;;7.65;7.35;;;;;;;16.06;16.81;101651.72;5030921;28;20501;-66
2022/03/28 09:36:32;;;;;;;7.57;7.28;;;;;;;16.49;16.49;101639.34;5029008;28;20071;-66
2022/03/28 09:38:58;;;;;;;7.30;7.00;;;;;;;16.21;17.18;101631.16;5044729;28;20074;-66
2022/03/28 09:41:24;;;;;;;6.97;6.68;;;;;;;16.20;17.08;101621.47;5032002;28;20424;-67
2022/03/28 09:43:55;;;;;;;7.00;6.70;;;;;;;16.43;17.12;101617.84;5026122;28;20053;-67
2022/03/28 09:46:28;;;;;;;7.40;7.10;;;;;;;15.88;16.96;101619.97;5037684;28;20028;-66
2022/03/28 09:48:57;;;;;;;8.00;7.60;;;;;;;15.58;16.29;101607.53;5027033;28;20029;-65
2022/03/28 09:51:26;;;;;;;7.88;7.47;;;;;;;15.22;17.10;101604.66;5030260;28;20115;-65
2022/03/28 09:53:51;;;;;;;7.93;7.53;;;;;;;15.56;16.50;101602.34;5028217;28;20029;-63
2022/03/28 09:56:17;;;;;;;7.35;7.05;;;;;;;15.23;17.10;101591.09;5040951;28;20051;-64
2022/03/28 09:58:56;;;;;;;7.57;7.28;;;;;;;15.52;17.40;101590.34;5043024;28;20017;-65
2022/03/28 10:01:38;;;;;;;7.30;7.00;;;;;;;15.09;16.95;101587.38;5034760;28;20025;-65
2022/03/28 10:04:08;;;;;;;7.13;6.82;;;;;;;16.00;16.46;101581.03;5038534;28;20078;-65
2022/03/28 10:06:35;;;;;;;7.25;6.95;;;;;;;15.02;16.87;101574.91;5046859;28;20021;-64
2022/03/28 10:09:02;;;;;;;6.90;6.60;;;;;;;14.90;17.15;101575.28;5040513;28;20078;-65
2022/03/28 10:11:29;;;;;;;7.57;7.28;;;;;;;14.95;16.95;101576.63;5037900;28;20032;-67
2022/03/28 10:13:55;;;;;;;7.00;6.70;;;;;;;14.57;17.53;101572.00;5041092;28;20103;-67
2022/03/28 10:16:22;;;;;;;7.22;6.93;;;;;;;14.91;17.40;101558.28;5035581;28;20033;-67
2022/03/28 10:18:50;;;;;;;7.78;7.43;;;;;;;14.80;17.44;101555.16;5030139;28;20020;-67
2022/03/28 10:21:23;;;;;;;7.45;7.15;;;;;;;14.28;16.87;101547.75;5037300;28;20399;-67
2022/03/28 10:23:50;;;;;;;7.57;7.25;;;;;;;14.08;16.52;101526.81;5042412;28;20110;-67
2022/03/28 10:26:19;;;;;;;7.00;6.70;;;;;;;14.84;16.80;101533.28;5045761;28;20020;-67
2022/03/28 10:29:00;;;;;;;7.63;7.30;;;;;;;14.79;16.81;101532.16;5041995;28;20029;-67
2022/03/28 10:31:25;;;;;;;7.03;6.72;;;;;;;14.80;17.58;101531.97;5039987;28;20400;-67
2022/03/28 10:33:53;;;;;;;7.07;6.78;;;;;;;15.11;16.10;101531.06;5042091;28;20033;-67
2022/03/28 10:36:31;;;;;;;7.00;6.70;;;;;;;14.79;16.14;101526.81;5031823;28;20025;-67
2022/03/28 10:39:34;;;;;;;7.93;7.53;;;;;;;15.00;16.73;101518.97;5025873;28;20026;-67
2022/03/28 10:42:24;;;;;;;6.80;6.50;;;;;;;15.14;16.17;101522.69;5035173;28;20035;-68
2022/03/28 10:45:05;;;;;;;7.93;7.53;;;;;;;14.77;16.41;101504.78;5033510;28;20144;-67
2022/03/28 10:47:44;;;;;;;6.95;6.65;;;;;;;15.12;16.73;101493.44;5036614;28;20424;-67
2022/03/28 10:50:12;;;;;;;7.00;6.70;;;;;;;15.12;16.45;101492.63;5032228;28;20090;-68
2022/03/28 10:52:46;;;;;;;6.88;6.57;;;;;;;15.50;16.38;101490.78;5036690;28;20047;-68
2022/03/28 10:55:12;;;;;;;7.00;6.70;;;;;;;15.20;15.94;101488.06;5040273;28;20441;-67
2022/03/28 10:57:38;;;;;;;6.78;6.47;;;;;;;15.16;16.01;101484.06;5037973;28;20116;-68
2022/03/28 11:00:12;;;;;;;6.97;6.68;;;;;;;14.90;15.56;101476.44;5036926;28;20048;-66
2022/03/28 11:02:38;;;;;;;7.68;7.35;;;;;;;15.53;15.91;101463.66;5039370;28;20392;-66
2022/03/28 11:05:12;;;;;;;7.13;6.82;;;;;;;15.82;15.71;101452.13;5037126;28;20492;-68
2022/03/28 11:07:37;;;;;;;7.45;7.15;;;;;;;15.71;15.63;101449.91;5035707;28;20033;-67
2022/03/28 11:10:13;;;;;;;6.72;6.43;;;;;;;15.96;15.21;101440.59;5030641;28;20036;-65
2022/03/28 11:12:42;;;;;;;6.90;6.60;;;;;;;15.19;15.77;101434.75;5037633;28;20033;-66
2022/03/28 11:15:21;;;;;;;7.00;6.70;;;;;;;15.52;15.74;101431.75;5040220;28;20072;-66
2022/03/28 11:17:55;;;;;;;6.90;6.60;;;;;;;15.68;15.57;101432.41;5023768;28;20063;-66
2022/03/28 11:20:23;;;;;;;7.13;6.82;;;;;;;15.72;15.69;101416.81;5036750;28;20480;-66
2022/03/28 11:22:56;;;;;;;7.32;7.03;;;;;;;16.21;15.63;101425.00;5034551;28;20045;-66
2022/03/28 11:25:44;;;;;;;8.00;7.60;;;;;;;15.97;15.14;101411.97;5039613;28;20056;-67
2022/03/28 11:28:15;;;;;;;7.20;6.90;;;;;;;15.69;15.23;101388.59;5036197;28;20036;-68
2022/03/28 11:30:40;;;;;;;6.97;6.68;;;;;;;15.84;15.60;101391.22;5036296;28;20025;-68
2022/03/28 11:33:08;;;;;;;6.60;6.30;;;;;;;15.68;15.44;101373.56;5044551;28;20486;-67